sensor_id;sensor_type;location;lat;lon;timestamp;P1;durP1;ratioP1;P2;durP2;ratioP2
77234;SDS011;66253;50.526;14.974;2023-04-19T00:03:07;24.60;;;13.90;;
77234;SDS011;66253;50.526;14.974;2023-04-19T00:06:20;33.70;;;15.90;;
77234;SDS011;66253;50.526;14.974;2023-04-19T00:19:37;29.60;;;14.70;;
77234;SDS011;66253;50.526;14.974;2023-04-19T00:26:02;39.20;;;16.70;;
77234;SDS011;66253;50.526;14.974;2023-04-19T00:28:50;29.00;;;15.30;;
77234;SDS011;66253;50.526;14.974;2023-04-19T00:32:17;28.40;;;16.80;;
77234;SDS011;66253;50.526;14.974;2023-04-19T00:38:39;24.20;;;14.80;;
77234;SDS011;66253;50.526;14.974;2023-04-19T00:54:19;29.00;;;13.60;;
77234;SDS011;66253;50.526;14.974;2023-04-19T00:57:41;25.40;;;14.20;;
77234;SDS011;66253;50.526;14.974;2023-04-19T01:13:19;23.30;;;13.70;;
77234;SDS011;66253;50.526;14.974;2023-04-19T01:20:20;24.60;;;13.30;;
77234;SDS011;66253;50.526;14.974;2023-04-19T01:29:01;23.30;;;12.40;;
77234;SDS011;66253;50.526;14.974;2023-04-19T01:41:43;21.50;;;11.60;;
77234;SDS011;66253;50.526;14.974;2023-04-19T01:45:09;24.50;;;15.00;;
77234;SDS011;66253;50.526;14.974;2023-04-19T01:52:02;25.30;;;13.90;;
77234;SDS011;66253;50.526;14.974;2023-04-19T01:54:57;23.70;;;13.50;;
77234;SDS011;66253;50.526;14.974;2023-04-19T02:01:29;21.90;;;12.10;;
77234;SDS011;66253;50.526;14.974;2023-04-19T02:04:19;24.50;;;14.40;;
77234;SDS011;66253;50.526;14.974;2023-04-19T02:07:21;21.90;;;11.90;;
77234;SDS011;66253;50.526;14.974;2023-04-19T02:14:42;23.20;;;13.00;;
77234;SDS011;66253;50.526;14.974;2023-04-19T02:17:11;23.20;;;12.40;;
77234;SDS011;66253;50.526;14.974;2023-04-19T02:20:32;22.70;;;11.70;;
77234;SDS011;66253;50.526;14.974;2023-04-19T02:30:28;25.20;;;14.10;;
77234;SDS011;66253;50.526;14.974;2023-04-19T02:37:10;33.40;;;16.10;;
77234;SDS011;66253;50.526;14.974;2023-04-19T02:46:54;23.50;;;14.20;;
77234;SDS011;66253;50.526;14.974;2023-04-19T03:04:15;20.90;;;13.00;;
77234;SDS011;66253;50.526;14.974;2023-04-19T03:08:18;20.80;;;11.70;;
77234;SDS011;66253;50.526;14.974;2023-04-19T03:31:57;19.30;;;10.30;;
77234;SDS011;66253;50.526;14.974;2023-04-19T03:38:56;20.80;;;12.20;;
77234;SDS011;66253;50.526;14.974;2023-04-19T03:48:30;18.10;;;9.50;;
77234;SDS011;66253;50.526;14.974;2023-04-19T03:55:22;13.80;;;7.80;;
77234;SDS011;66253;50.526;14.974;2023-04-19T03:58:34;18.50;;;8.90;;
77234;SDS011;66253;50.526;14.974;2023-04-19T04:11:43;15.40;;;8.40;;
77234;SDS011;66253;50.526;14.974;2023-04-19T04:25:29;16.00;;;9.80;;
77234;SDS011;66253;50.526;14.974;2023-04-19T04:33:02;17.90;;;8.10;;
77234;SDS011;66253;50.526;14.974;2023-04-19T04:47:21;16.90;;;8.70;;
77234;SDS011;66253;50.526;14.974;2023-04-19T04:57:31;18.20;;;8.50;;
77234;SDS011;66253;50.526;14.974;2023-04-19T05:07:58;10.30;;;5.80;;
77234;SDS011;66253;50.526;14.974;2023-04-19T05:17:41;14.90;;;7.70;;
77234;SDS011;66253;50.526;14.974;2023-04-19T05:21:37;12.70;;;7.50;;
77234;SDS011;66253;50.526;14.974;2023-04-19T05:27:44;10.50;;;6.30;;
77234;SDS011;66253;50.526;14.974;2023-04-19T05:34:16;11.20;;;6.00;;
77234;SDS011;66253;50.526;14.974;2023-04-19T05:37:31;11.90;;;7.10;;
77234;SDS011;66253;50.526;14.974;2023-04-19T05:40:39;12.70;;;6.30;;
77234;SDS011;66253;50.526;14.974;2023-04-19T05:57:48;7.70;;;4.50;;
77234;SDS011;66253;50.526;14.974;2023-04-19T06:12:26;9.50;;;5.40;;
77234;SDS011;66253;50.526;14.974;2023-04-19T06:20:54;14.50;;;6.10;;
77234;SDS011;66253;50.526;14.974;2023-04-19T06:23:19;13.70;;;6.20;;
77234;SDS011;66253;50.526;14.974;2023-04-19T06:26:54;10.60;;;5.50;;
77234;SDS011;66253;50.526;14.974;2023-04-19T06:29:42;9.90;;;6.60;;
77234;SDS011;66253;50.526;14.974;2023-04-19T06:32:13;10.80;;;5.90;;
77234;SDS011;66253;50.526;14.974;2023-04-19T06:35:20;9.70;;;5.00;;
77234;SDS011;66253;50.526;14.974;2023-04-19T06:37:45;10.10;;;5.90;;
77234;SDS011;66253;50.526;14.974;2023-04-19T06:40:14;10.90;;;6.60;;
77234;SDS011;66253;50.526;14.974;2023-04-19T06:42:42;10.70;;;5.00;;
77234;SDS011;66253;50.526;14.974;2023-04-19T06:45:08;8.20;;;5.00;;
77234;SDS011;66253;50.526;14.974;2023-04-19T06:47:37;9.30;;;5.20;;
77234;SDS011;66253;50.526;14.974;2023-04-19T06:50:10;9.00;;;4.90;;
77234;SDS011;66253;50.526;14.974;2023-04-19T06:52:36;11.20;;;4.60;;
77234;SDS011;66253;50.526;14.974;2023-04-19T06:55:03;6.80;;;3.80;;
77234;SDS011;66253;50.526;14.974;2023-04-19T06:57:39;6.40;;;3.60;;
77234;SDS011;66253;50.526;14.974;2023-04-19T07:00:08;6.00;;;3.20;;
77234;SDS011;66253;50.526;14.974;2023-04-19T07:02:35;5.70;;;2.60;;
77234;SDS011;66253;50.526;14.974;2023-04-19T07:05:01;7.40;;;2.70;;
77234;SDS011;66253;50.526;14.974;2023-04-19T07:07:28;5.30;;;2.60;;
77234;SDS011;66253;50.526;14.974;2023-04-19T07:09:53;6.20;;;2.50;;
77234;SDS011;66253;50.526;14.974;2023-04-19T07:12:22;5.90;;;2.30;;
77234;SDS011;66253;50.526;14.974;2023-04-19T07:14:51;5.60;;;1.80;;
77234;SDS011;66253;50.526;14.974;2023-04-19T07:17:21;4.60;;;2.00;;
77234;SDS011;66253;50.526;14.974;2023-04-19T07:19:52;4.80;;;1.90;;
77234;SDS011;66253;50.526;14.974;2023-04-19T07:22:18;5.60;;;2.30;;
77234;SDS011;66253;50.526;14.974;2023-04-19T07:25:07;6.10;;;2.60;;
77234;SDS011;66253;50.526;14.974;2023-04-19T07:27:33;6.40;;;3.00;;
77234;SDS011;66253;50.526;14.974;2023-04-19T07:30:07;4.90;;;2.30;;
77234;SDS011;66253;50.526;14.974;2023-04-19T07:32:38;5.60;;;2.70;;
77234;SDS011;66253;50.526;14.974;2023-04-19T07:35:06;5.80;;;2.80;;
77234;SDS011;66253;50.526;14.974;2023-04-19T07:37:32;6.70;;;2.70;;
77234;SDS011;66253;50.526;14.974;2023-04-19T07:39:58;5.70;;;2.70;;
77234;SDS011;66253;50.526;14.974;2023-04-19T07:42:28;5.70;;;3.10;;
77234;SDS011;66253;50.526;14.974;2023-04-19T07:44:55;5.60;;;2.10;;
77234;SDS011;66253;50.526;14.974;2023-04-19T07:50:07;6.90;;;3.10;;
77234;SDS011;66253;50.526;14.974;2023-04-19T07:52:33;6.40;;;3.20;;
77234;SDS011;66253;50.526;14.974;2023-04-19T07:54:59;7.50;;;3.40;;
77234;SDS011;66253;50.526;14.974;2023-04-19T07:57:37;8.50;;;3.20;;
77234;SDS011;66253;50.526;14.974;2023-04-19T08:00:10;6.00;;;3.20;;
77234;SDS011;66253;50.526;14.974;2023-04-19T08:02:37;6.50;;;2.60;;
77234;SDS011;66253;50.526;14.974;2023-04-19T08:05:02;5.50;;;2.30;;
77234;SDS011;66253;50.526;14.974;2023-04-19T08:07:30;5.00;;;2.00;;
77234;SDS011;66253;50.526;14.974;2023-04-19T08:09:59;5.30;;;2.00;;
77234;SDS011;66253;50.526;14.974;2023-04-19T08:12:25;4.70;;;1.40;;
77234;SDS011;66253;50.526;14.974;2023-04-19T08:14:53;3.70;;;1.40;;
77234;SDS011;66253;50.526;14.974;2023-04-19T08:17:22;3.10;;;1.20;;
77234;SDS011;66253;50.526;14.974;2023-04-19T08:19:54;3.30;;;1.20;;
77234;SDS011;66253;50.526;14.974;2023-04-19T08:22:34;3.80;;;0.80;;
77234;SDS011;66253;50.526;14.974;2023-04-19T08:25:00;3.80;;;1.00;;
77234;SDS011;66253;50.526;14.974;2023-04-19T08:27:30;3.40;;;1.50;;
77234;SDS011;66253;50.526;14.974;2023-04-19T08:29:59;4.80;;;1.60;;
77234;SDS011;66253;50.526;14.974;2023-04-19T08:32:28;11.50;;;4.30;;
77234;SDS011;66253;50.526;14.974;2023-04-19T08:34:57;5.50;;;2.40;;
77234;SDS011;66253;50.526;14.974;2023-04-19T08:37:27;3.70;;;1.90;;
77234;SDS011;66253;50.526;14.974;2023-04-19T08:39:55;4.60;;;1.70;;
77234;SDS011;66253;50.526;14.974;2023-04-19T08:42:27;4.70;;;1.50;;
77234;SDS011;66253;50.526;14.974;2023-04-19T08:44:56;7.60;;;3.00;;
77234;SDS011;66253;50.526;14.974;2023-04-19T08:47:26;5.60;;;1.60;;
77234;SDS011;66253;50.526;14.974;2023-04-19T08:50:05;4.80;;;1.80;;
77234;SDS011;66253;50.526;14.974;2023-04-19T08:52:44;5.50;;;1.90;;
77234;SDS011;66253;50.526;14.974;2023-04-19T08:55:11;7.50;;;2.20;;
77234;SDS011;66253;50.526;14.974;2023-04-19T08:57:37;5.40;;;2.10;;
77234;SDS011;66253;50.526;14.974;2023-04-19T09:00:19;4.50;;;1.90;;
77234;SDS011;66253;50.526;14.974;2023-04-19T09:02:48;4.40;;;1.70;;
77234;SDS011;66253;50.526;14.974;2023-04-19T09:05:22;6.70;;;1.40;;
77234;SDS011;66253;50.526;14.974;2023-04-19T09:07:52;6.90;;;2.00;;
77234;SDS011;66253;50.526;14.974;2023-04-19T09:10:21;7.80;;;2.30;;
77234;SDS011;66253;50.526;14.974;2023-04-19T09:13:03;7.00;;;3.00;;
77234;SDS011;66253;50.526;14.974;2023-04-19T09:15:40;5.40;;;2.70;;
77234;SDS011;66253;50.526;14.974;2023-04-19T09:18:23;6.10;;;2.50;;
77234;SDS011;66253;50.526;14.974;2023-04-19T09:21:30;5.50;;;3.30;;
77234;SDS011;66253;50.526;14.974;2023-04-19T09:24:02;5.40;;;2.70;;
77234;SDS011;66253;50.526;14.974;2023-04-19T09:26:58;7.30;;;2.80;;
77234;SDS011;66253;50.526;14.974;2023-04-19T09:29:33;5.20;;;2.40;;
77234;SDS011;66253;50.526;14.974;2023-04-19T09:32:16;4.90;;;1.90;;
77234;SDS011;66253;50.526;14.974;2023-04-19T09:34:55;5.70;;;2.10;;
77234;SDS011;66253;50.526;14.974;2023-04-19T09:37:29;4.30;;;2.40;;
77234;SDS011;66253;50.526;14.974;2023-04-19T09:40:29;5.90;;;2.70;;
77234;SDS011;66253;50.526;14.974;2023-04-19T09:43:35;4.70;;;2.20;;
77234;SDS011;66253;50.526;14.974;2023-04-19T09:46:03;3.90;;;1.70;;
77234;SDS011;66253;50.526;14.974;2023-04-19T09:48:35;6.10;;;3.10;;
77234;SDS011;66253;50.526;14.974;2023-04-19T09:51:01;5.80;;;2.10;;
77234;SDS011;66253;50.526;14.974;2023-04-19T09:54:22;6.50;;;2.60;;
77234;SDS011;66253;50.526;14.974;2023-04-19T09:56:59;6.50;;;2.60;;
77234;SDS011;66253;50.526;14.974;2023-04-19T09:59:46;5.80;;;2.10;;
77234;SDS011;66253;50.526;14.974;2023-04-19T10:02:14;5.70;;;2.30;;
77234;SDS011;66253;50.526;14.974;2023-04-19T10:05:11;7.00;;;3.40;;
77234;SDS011;66253;50.526;14.974;2023-04-19T10:07:45;7.30;;;2.90;;
77234;SDS011;66253;50.526;14.974;2023-04-19T10:10:30;5.60;;;2.60;;
77234;SDS011;66253;50.526;14.974;2023-04-19T10:13:24;7.90;;;3.30;;
77234;SDS011;66253;50.526;14.974;2023-04-19T10:16:13;7.80;;;3.40;;
77234;SDS011;66253;50.526;14.974;2023-04-19T10:19:09;6.90;;;3.50;;
77234;SDS011;66253;50.526;14.974;2023-04-19T10:22:10;6.60;;;2.90;;
77234;SDS011;66253;50.526;14.974;2023-04-19T10:27:40;6.20;;;2.90;;
77234;SDS011;66253;50.526;14.974;2023-04-19T10:30:20;6.80;;;2.60;;
77234;SDS011;66253;50.526;14.974;2023-04-19T10:33:15;6.30;;;2.70;;
77234;SDS011;66253;50.526;14.974;2023-04-19T10:36:25;7.70;;;2.60;;
77234;SDS011;66253;50.526;14.974;2023-04-19T10:40:05;6.50;;;3.00;;
77234;SDS011;66253;50.526;14.974;2023-04-19T11:00:31;10.20;;;3.30;;
77234;SDS011;66253;50.526;14.974;2023-04-19T11:18:43;9.40;;;2.70;;
77234;SDS011;66253;50.526;14.974;2023-04-19T11:24:46;8.70;;;4.20;;
77234;SDS011;66253;50.526;14.974;2023-04-19T11:31:26;6.70;;;2.60;;
77234;SDS011;66253;50.526;14.974;2023-04-19T11:33:37;7.50;;;3.30;;
77234;SDS011;66253;50.526;14.974;2023-04-19T11:46:12;5.80;;;2.10;;
77234;SDS011;66253;50.526;14.974;2023-04-19T11:49:00;9.10;;;2.70;;
77234;SDS011;66253;50.526;14.974;2023-04-19T11:54:41;9.80;;;3.40;;
77234;SDS011;66253;50.526;14.974;2023-04-19T11:57:40;6.80;;;3.20;;
77234;SDS011;66253;50.526;14.974;2023-04-19T12:00:48;6.30;;;2.80;;
77234;SDS011;66253;50.526;14.974;2023-04-19T12:03:52;8.50;;;3.00;;
77234;SDS011;66253;50.526;14.974;2023-04-19T12:06:54;7.40;;;3.50;;
77234;SDS011;66253;50.526;14.974;2023-04-19T12:12:52;9.00;;;3.20;;
77234;SDS011;66253;50.526;14.974;2023-04-19T12:15:56;7.10;;;3.00;;
77234;SDS011;66253;50.526;14.974;2023-04-19T12:21:34;7.80;;;3.40;;
77234;SDS011;66253;50.526;14.974;2023-04-19T12:24:36;6.20;;;2.70;;
77234;SDS011;66253;50.526;14.974;2023-04-19T12:27:49;7.90;;;4.00;;
77234;SDS011;66253;50.526;14.974;2023-04-19T12:30:19;6.50;;;2.40;;
77234;SDS011;66253;50.526;14.974;2023-04-19T12:36:24;6.60;;;2.70;;
77234;SDS011;66253;50.526;14.974;2023-04-19T12:39:13;5.90;;;3.30;;
77234;SDS011;66253;50.526;14.974;2023-04-19T12:41:54;5.30;;;2.40;;
77234;SDS011;66253;50.526;14.974;2023-04-19T12:44:26;5.60;;;2.30;;
77234;SDS011;66253;50.526;14.974;2023-04-19T12:47:19;6.10;;;2.00;;
77234;SDS011;66253;50.526;14.974;2023-04-19T12:49:58;5.10;;;2.20;;
77234;SDS011;66253;50.526;14.974;2023-04-19T12:52:50;5.20;;;2.60;;
77234;SDS011;66253;50.526;14.974;2023-04-19T12:55:21;5.90;;;2.40;;
77234;SDS011;66253;50.526;14.974;2023-04-19T12:58:01;5.80;;;2.10;;
77234;SDS011;66253;50.526;14.974;2023-04-19T13:01:01;7.00;;;2.80;;
77234;SDS011;66253;50.526;14.974;2023-04-19T13:03:50;5.80;;;3.10;;
77234;SDS011;66253;50.526;14.974;2023-04-19T13:06:52;5.90;;;2.40;;
77234;SDS011;66253;50.526;14.974;2023-04-19T13:09:53;5.30;;;2.50;;
77234;SDS011;66253;50.526;14.974;2023-04-19T13:15:33;5.90;;;3.40;;
77234;SDS011;66253;50.526;14.974;2023-04-19T13:18:08;6.50;;;3.10;;
77234;SDS011;66253;50.526;14.974;2023-04-19T13:21:38;5.20;;;2.40;;
77234;SDS011;66253;50.526;14.974;2023-04-19T13:24:03;5.40;;;2.20;;
77234;SDS011;66253;50.526;14.974;2023-04-19T13:30:04;6.00;;;3.20;;
77234;SDS011;66253;50.526;14.974;2023-04-19T13:32:41;5.90;;;2.40;;
77234;SDS011;66253;50.526;14.974;2023-04-19T13:35:12;6.90;;;2.70;;
77234;SDS011;66253;50.526;14.974;2023-04-19T13:38:03;7.90;;;2.30;;
77234;SDS011;66253;50.526;14.974;2023-04-19T13:43:30;7.30;;;3.30;;
77234;SDS011;66253;50.526;14.974;2023-04-19T13:46:42;7.00;;;2.70;;
77234;SDS011;66253;50.526;14.974;2023-04-19T13:48:45;5.10;;;2.50;;
77234;SDS011;66253;50.526;14.974;2023-04-19T13:51:34;5.80;;;2.70;;
77234;SDS011;66253;50.526;14.974;2023-04-19T13:54:09;5.80;;;2.80;;
77234;SDS011;66253;50.526;14.974;2023-04-19T13:59:34;6.20;;;2.90;;
77234;SDS011;66253;50.526;14.974;2023-04-19T14:02:20;7.30;;;2.80;;
77234;SDS011;66253;50.526;14.974;2023-04-19T14:05:19;5.70;;;2.20;;
77234;SDS011;66253;50.526;14.974;2023-04-19T14:07:59;6.50;;;3.10;;
77234;SDS011;66253;50.526;14.974;2023-04-19T14:10:27;5.70;;;3.20;;
77234;SDS011;66253;50.526;14.974;2023-04-19T14:12:58;6.40;;;2.50;;
77234;SDS011;66253;50.526;14.974;2023-04-19T14:19:03;7.20;;;3.30;;
77234;SDS011;66253;50.526;14.974;2023-04-19T14:24:56;5.20;;;1.60;;
77234;SDS011;66253;50.526;14.974;2023-04-19T14:27:26;6.00;;;2.90;;
77234;SDS011;66253;50.526;14.974;2023-04-19T14:30:22;5.20;;;3.20;;
77234;SDS011;66253;50.526;14.974;2023-04-19T14:32:53;4.70;;;1.90;;
77234;SDS011;66253;50.526;14.974;2023-04-19T14:35:52;4.40;;;1.80;;
77234;SDS011;66253;50.526;14.974;2023-04-19T14:38:18;4.90;;;2.30;;
77234;SDS011;66253;50.526;14.974;2023-04-19T14:41:30;6.00;;;2.20;;
77234;SDS011;66253;50.526;14.974;2023-04-19T14:43:58;8.40;;;2.10;;
77234;SDS011;66253;50.526;14.974;2023-04-19T14:49:44;5.30;;;2.60;;
77234;SDS011;66253;50.526;14.974;2023-04-19T14:52:43;5.30;;;2.40;;
77234;SDS011;66253;50.526;14.974;2023-04-19T14:55:37;5.80;;;2.30;;
77234;SDS011;66253;50.526;14.974;2023-04-19T14:58:11;4.90;;;2.00;;
77234;SDS011;66253;50.526;14.974;2023-04-19T15:00:45;4.00;;;2.00;;
77234;SDS011;66253;50.526;14.974;2023-04-19T15:06:21;4.50;;;1.80;;
77234;SDS011;66253;50.526;14.974;2023-04-19T15:09:16;4.60;;;1.70;;
77234;SDS011;66253;50.526;14.974;2023-04-19T15:11:44;9.70;;;3.40;;
77234;SDS011;66253;50.526;14.974;2023-04-19T15:14:24;6.20;;;2.90;;
77234;SDS011;66253;50.526;14.974;2023-04-19T15:17:04;4.50;;;2.30;;
77234;SDS011;66253;50.526;14.974;2023-04-19T15:19:37;5.50;;;2.60;;
77234;SDS011;66253;50.526;14.974;2023-04-19T17:29:38;25.40;;;12.10;;
77234;SDS011;66253;50.526;14.974;2023-04-19T18:02:38;14.30;;;6.60;;
77234;SDS011;66253;50.526;14.974;2023-04-19T19:27:29;22.20;;;5.60;;
77234;SDS011;66253;50.526;14.974;2023-04-19T20:41:23;5.70;;;2.30;;
77234;SDS011;66253;50.526;14.974;2023-04-19T21:33:48;5.70;;;2.40;;
77234;SDS011;66253;50.526;14.974;2023-04-19T21:59:36;3.20;;;1.20;;
77234;SDS011;66253;50.526;14.974;2023-04-19T22:47:10;4.70;;;2.30;;
77234;SDS011;66253;50.526;14.974;2023-04-19T22:50:55;4.20;;;1.30;;
77234;SDS011;66253;50.526;14.974;2023-04-19T23:31:01;7.90;;;3.70;;
